Terminal Aerodrome Forecast
Issued by NWS

Home | Current Version | Previous Version | Text Only | Print | Product List | Glossary On
Versions: 1 2 3 4 5 6 7 8 9 10 11 12 13 14 15 16 17 18 19 20 21 22
000
FTUS42 TJSJ 230700 AAA
TAFJSJ
TAF AMD
TJSJ 230729Z 2307/2406 08003KT P6SM VCSH FEW024 SCT030 SCT040
      TEMPO 2307/2310 VRB15G24KT 3SM TSRA BKN020CB
     FM231200 15004KT P6SM SCT030 BKN080
     FM232100 VRB05KT P6SM SCT025 SCT070=

USA.gov is the U.S. government's official web portal to all federal, state and local government web resources and services.